Time;durP1;ratioP1;P1;durP2;ratioP2;P2;SDS_P1;SDS_P2;PMS_P1;PMS_P2;Temp;Humidity;BMP_temperature;BMP_pressure;BME280_temperature;BME280_humidity;BME280_pressure;Samples;Min_cycle;Max_cycle;Signal;HPM_P1;HPM_P2
2022/10/23 00:01:13;;;;;;;1.37;1.27;;;;;;;;;;5008425;28;20599;-70
2022/10/23 00:03:40;;;;;;;3.33;1.50;;;;;;;;;;5000244;28;20232;-70
2022/10/23 00:06:08;;;;;;;4.67;1.60;;;;;;;;;;5003415;28;20224;-70
2022/10/23 00:08:35;;;;;;;2.00;1.80;;;;;;;;;;5007036;28;20213;-70
2022/10/23 00:11:06;;;;;;;4.10;1.40;;;;;;;;;;5005948;28;20232;-71
2022/10/23 00:13:33;;;;;;;4.53;1.43;;;;;;;;;;5007359;28;20220;-70
2022/10/23 00:16:01;;;;;;;4.97;2.00;;;;;;;;;;5007308;28;20209;-70
2022/10/23 00:18:28;;;;;;;2.00;1.83;;;;;;;;;;5005273;28;20213;-70
2022/10/23 00:20:56;;;;;;;2.23;2.00;;;;;;;;;;5007781;28;20560;-70
2022/10/23 00:23:23;;;;;;;1.83;1.73;;;;;;;;;;5007086;28;20281;-70
2022/10/23 00:25:50;;;;;;;6.10;1.87;;;;;;;;;;5007302;28;20595;-70
2022/10/23 00:28:17;;;;;;;8.93;2.30;;;;;;;;;;5007387;28;20216;-70
2022/10/23 00:30:44;;;;;;;1.60;1.50;;;;;;;;;;5004761;28;20717;-70
2022/10/23 00:33:13;;;;;;;1.73;1.63;;;;;;;;;;5007510;28;20733;-70
2022/10/23 00:35:40;;;;;;;1.63;1.63;;;;;;;;;;5005795;28;20216;-70
2022/10/23 00:38:08;;;;;;;2.93;1.73;;;;;;;;;;5007636;28;20209;-70
2022/10/23 00:40:35;;;;;;;5.03;1.80;;;;;;;;;;5008093;28;20217;-70
2022/10/23 00:43:02;;;;;;;2.83;2.13;;;;;;;;;;5007864;28;20209;-70
2022/10/23 00:45:32;;;;;;;1.50;1.40;;;;;;;;;;5006401;28;20208;-70
2022/10/23 00:47:59;;;;;;;5.30;1.50;;;;;;;;;;5007903;28;20208;-70
2022/10/23 00:50:28;;;;;;;1.53;1.43;;;;;;;;;;5005916;28;20217;-70
2022/10/23 00:52:56;;;;;;;3.83;2.07;;;;;;;;;;5006238;28;20216;-70
2022/10/23 00:55:24;;;;;;;1.63;1.27;;;;;;;;;;5008111;28;20240;-70
2022/10/23 00:57:52;;;;;;;2.90;1.40;;;;;;;;;;5006429;28;20209;-70
2022/10/23 01:00:20;;;;;;;1.93;1.30;;;;;;;;;;5007687;28;20207;-70
2022/10/23 01:02:47;;;;;;;11.27;1.70;;;;;;;;;;5006601;28;20198;-70
2022/10/23 01:05:14;;;;;;;2.23;1.50;;;;;;;;;;5007673;28;20216;-70
2022/10/23 01:07:48;;;;;;;3.27;1.90;;;;;;;;;;5007921;28;20205;-70
2022/10/23 01:10:16;;;;;;;5.50;1.67;;;;;;;;;;5006960;28;20209;-70
2022/10/23 01:12:46;;;;;;;3.40;1.50;;;;;;;;;;5007057;28;20256;-70
2022/10/23 01:15:16;;;;;;;1.87;1.77;;;;;;;;;;5006119;28;20208;-70
2022/10/23 01:17:44;;;;;;;1.30;1.30;;;;;;;;;;5006970;28;20223;-70
2022/10/23 01:20:19;;;;;;;1.83;1.73;;;;;;;;;;5007819;28;20213;-70
2022/10/23 01:23:01;;;;;;;1.77;1.67;;;;;;;;;;5006292;28;20203;-70
2022/10/23 01:25:39;;;;;;;3.33;2.00;;;;;;;;;;5003740;28;20303;-70
2022/10/23 01:28:10;;;;;;;1.53;1.53;;;;;;;;;;5005997;28;20217;-70
2022/10/23 01:30:41;;;;;;;5.03;2.00;;;;;;;;;;5006451;28;20675;-70
2022/10/23 01:33:11;;;;;;;1.67;1.57;;;;;;;;;;5004318;28;20216;-70
2022/10/23 01:35:41;;;;;;;2.07;1.43;;;;;;;;;;5005533;28;20204;-70
2022/10/23 01:38:10;;;;;;;1.67;1.57;;;;;;;;;;5005127;28;20220;-70
2022/10/23 01:40:43;;;;;;;2.17;1.77;;;;;;;;;;5003323;28;20205;-70
2022/10/23 01:43:15;;;;;;;1.23;1.17;;;;;;;;;;5004469;28;20231;-70
2022/10/23 01:45:44;;;;;;;1.83;1.70;;;;;;;;;;5007283;28;20205;-70
2022/10/23 01:48:13;;;;;;;1.43;1.33;;;;;;;;;;5007571;28;20205;-70
2022/10/23 01:50:40;;;;;;;1.83;1.50;;;;;;;;;;5007244;28;20213;-70
2022/10/23 01:53:07;;;;;;;1.83;1.40;;;;;;;;;;5003746;28;20229;-70
2022/10/23 01:55:34;;;;;;;2.10;2.00;;;;;;;;;;5005117;28;20237;-70
2022/10/23 01:58:03;;;;;;;1.37;1.27;;;;;;;;;;5005372;28;20228;-69
2022/10/23 02:00:31;;;;;;;6.00;1.83;;;;;;;;;;5007494;28;20224;-70
2022/10/23 02:02:58;;;;;;;1.47;1.47;;;;;;;;;;4998327;28;20585;-70
2022/10/23 02:05:27;;;;;;;3.67;1.70;;;;;;;;;;5005533;28;20227;-70
2022/10/23 02:07:54;;;;;;;7.73;1.73;;;;;;;;;;5003747;28;20212;-69
2022/10/23 02:10:22;;;;;;;3.13;1.40;;;;;;;;;;5003375;28;20233;-69
2022/10/23 02:12:51;;;;;;;2.00;1.90;;;;;;;;;;5008169;28;20718;-69
2022/10/23 02:15:21;;;;;;;1.93;1.70;;;;;;;;;;5007642;28;20213;-70
2022/10/23 02:17:51;;;;;;;1.93;1.83;;;;;;;;;;5009476;28;20594;-70
2022/10/23 02:20:21;;;;;;;2.03;1.93;;;;;;;;;;5008603;28;20651;-69
2022/10/23 02:22:54;;;;;;;4.87;1.87;;;;;;;;;;5008848;28;20212;-69
2022/10/23 02:25:24;;;;;;;1.80;1.53;;;;;;;;;;5007901;28;20201;-70
2022/10/23 02:27:53;;;;;;;1.80;1.70;;;;;;;;;;5008102;28;20558;-70
2022/10/23 02:30:21;;;;;;;6.90;1.90;;;;;;;;;;5009526;28;20228;-70
2022/10/23 02:32:50;;;;;;;3.53;1.73;;;;;;;;;;5008830;28;20320;-70
2022/10/23 02:35:18;;;;;;;5.53;1.90;;;;;;;;;;5009820;28;20201;-69
2022/10/23 02:40:48;;;;;;;2.47;1.60;;;;;;;;;;5003984;28;20623;-69
2022/10/23 02:43:21;;;;;;;2.87;1.70;;;;;;;;;;5009105;28;20201;-69
2022/10/23 02:45:50;;;;;;;3.57;1.50;;;;;;;;;;5007560;28;20267;-69
2022/10/23 02:48:20;;;;;;;6.20;1.63;;;;;;;;;;5007443;28;20213;-69
2022/10/23 02:50:52;;;;;;;1.67;1.60;;;;;;;;;;5006707;28;20213;-70
2022/10/23 02:53:21;;;;;;;1.60;1.50;;;;;;;;;;5006877;28;20788;-69
2022/10/23 02:55:54;;;;;;;2.40;1.57;;;;;;;;;;5006666;28;20241;-69
2022/10/23 02:58:26;;;;;;;3.00;1.70;;;;;;;;;;5006945;28;20208;-71
2022/10/23 03:00:55;;;;;;;1.63;1.60;;;;;;;;;;5006278;28;20279;-71
2022/10/23 03:03:26;;;;;;;1.60;1.50;;;;;;;;;;5007793;28;20224;-73
2022/10/23 03:05:53;;;;;;;6.13;1.80;;;;;;;;;;5005659;28;20219;-71
2022/10/23 03:08:20;;;;;;;1.77;1.67;;;;;;;;;;5007129;28;20255;-71
2022/10/23 03:10:47;;;;;;;2.17;1.80;;;;;;;;;;5007937;28;20287;-71
2022/10/23 03:13:14;;;;;;;3.77;1.50;;;;;;;;;;5007753;28;20225;-71
2022/10/23 03:15:42;;;;;;;1.97;1.40;;;;;;;;;;5005900;28;20209;-69
2022/10/23 03:18:09;;;;;;;5.43;1.80;;;;;;;;;;5006901;28;20565;-70
2022/10/23 03:20:37;;;;;;;6.03;1.97;;;;;;;;;;5004014;28;20216;-69
2022/10/23 03:23:04;;;;;;;1.43;1.40;;;;;;;;;;5007713;28;20208;-70
2022/10/23 03:25:31;;;;;;;2.37;2.20;;;;;;;;;;5006898;28;20605;-69
2022/10/23 03:27:59;;;;;;;1.33;1.33;;;;;;;;;;5007505;28;20430;-69
2022/10/23 03:30:26;;;;;;;2.07;1.97;;;;;;;;;;5006472;28;20201;-70
2022/10/23 03:32:53;;;;;;;1.63;1.47;;;;;;;;;;5007709;28;20228;-69
2022/10/23 03:35:20;;;;;;;2.57;1.10;;;;;;;;;;5007325;28;20201;-69
2022/10/23 03:37:48;;;;;;;1.17;1.17;;;;;;;;;;5007009;28;20296;-69
2022/10/23 03:40:15;;;;;;;1.40;1.30;;;;;;;;;;5004595;28;20213;-69
2022/10/23 03:42:42;;;;;;;1.60;1.50;;;;;;;;;;5004176;28;20209;-70
2022/10/23 03:45:10;;;;;;;3.07;1.40;;;;;;;;;;5007900;28;20226;-70
2022/10/23 03:47:39;;;;;;;1.20;1.20;;;;;;;;;;5003988;28;20205;-70
2022/10/23 03:50:07;;;;;;;2.00;1.90;;;;;;;;;;5006954;28;20595;-70
2022/10/23 03:52:34;;;;;;;2.30;1.10;;;;;;;;;;5007795;28;20229;-70
2022/10/23 03:55:02;;;;;;;5.30;2.10;;;;;;;;;;5006253;28;20246;-69
2022/10/23 03:57:29;;;;;;;2.67;1.50;;;;;;;;;;5007317;28;20659;-70
2022/10/23 03:59:56;;;;;;;4.53;1.40;;;;;;;;;;5007494;28;20292;-70
2022/10/23 04:02:24;;;;;;;1.20;1.20;;;;;;;;;;5005519;28;20281;-69
2022/10/23 04:04:51;;;;;;;1.63;1.37;;;;;;;;;;5007470;28;20201;-70
2022/10/23 04:07:18;;;;;;;1.70;1.60;;;;;;;;;;5007499;28;20655;-70
2022/10/23 04:09:45;;;;;;;1.67;1.57;;;;;;;;;;5006897;28;20743;-70
2022/10/23 04:12:13;;;;;;;11.60;1.53;;;;;;;;;;5007928;28;20229;-69
2022/10/23 04:14:40;;;;;;;3.93;1.67;;;;;;;;;;5004449;28;20681;-70
2022/10/23 04:17:07;;;;;;;1.97;1.87;;;;;;;;;;5007434;28;20684;-69
2022/10/23 04:19:34;;;;;;;4.20;1.50;;;;;;;;;;5006367;28;20868;-69
2022/10/23 04:22:01;;;;;;;2.63;1.90;;;;;;;;;;5007120;28;20204;-70
2022/10/23 04:24:28;;;;;;;2.50;2.30;;;;;;;;;;5006987;28;20201;-70
2022/10/23 04:26:56;;;;;;;2.10;1.90;;;;;;;;;;5007822;28;20209;-70
2022/10/23 04:29:24;;;;;;;4.50;2.00;;;;;;;;;;5007124;28;20825;-70
2022/10/23 04:31:51;;;;;;;3.87;2.80;;;;;;;;;;5006406;28;20208;-70
2022/10/23 04:34:19;;;;;;;6.83;2.30;;;;;;;;;;5007071;28;20565;-70
2022/10/23 04:36:46;;;;;;;3.87;2.53;;;;;;;;;;5006959;28;20213;-70
2022/10/23 04:39:13;;;;;;;5.53;2.30;;;;;;;;;;5005506;28;20674;-70
2022/10/23 04:41:40;;;;;;;2.73;2.17;;;;;;;;;;5003293;28;20229;-70
2022/10/23 04:44:08;;;;;;;3.20;1.97;;;;;;;;;;5006994;28;20790;-70
2022/10/23 04:46:36;;;;;;;3.80;2.00;;;;;;;;;;5007289;28;20217;-70
2022/10/23 04:49:03;;;;;;;1.97;1.60;;;;;;;;;;5006424;28;20727;-71
2022/10/23 04:51:30;;;;;;;4.87;1.80;;;;;;;;;;5006422;28;20209;-70
2022/10/23 04:53:57;;;;;;;1.67;1.57;;;;;;;;;;5006756;28;20228;-71
2022/10/23 04:56:24;;;;;;;5.20;1.77;;;;;;;;;;5006740;28;20233;-71
2022/10/23 04:58:51;;;;;;;1.73;1.67;;;;;;;;;;5003981;28;20204;-71
2022/10/23 05:01:18;;;;;;;6.47;1.87;;;;;;;;;;5006105;28;20220;-71
2022/10/23 05:03:47;;;;;;;5.10;1.80;;;;;;;;;;5006876;28;20718;-71
2022/10/23 05:06:14;;;;;;;2.87;1.57;;;;;;;;;;5006434;28;20256;-71
2022/10/23 05:08:41;;;;;;;1.87;1.63;;;;;;;;;;5006187;28;20612;-71
2022/10/23 05:11:08;;;;;;;1.43;1.43;;;;;;;;;;5005004;28;20594;-71
2022/10/23 05:13:35;;;;;;;3.57;1.50;;;;;;;;;;5006486;28;20237;-71
2022/10/23 05:16:03;;;;;;;3.93;1.43;;;;;;;;;;5007213;28;20204;-70
2022/10/23 05:18:33;;;;;;;1.70;1.60;;;;;;;;;;5003710;28;20217;-72
2022/10/23 05:21:02;;;;;;;4.63;1.43;;;;;;;;;;5006749;28;20214;-71
2022/10/23 05:23:31;;;;;;;1.73;1.33;;;;;;;;;;5002726;28;20201;-71
2022/10/23 05:25:58;;;;;;;1.43;1.30;;;;;;;;;;5006125;28;20216;-71
2022/10/23 05:28:25;;;;;;;1.13;1.13;;;;;;;;;;5006072;28;20209;-71
2022/10/23 05:30:52;;;;;;;2.30;1.17;;;;;;;;;;5006983;28;20212;-71
2022/10/23 05:33:19;;;;;;;2.20;1.10;;;;;;;;;;5006254;28;20221;-71
2022/10/23 05:35:47;;;;;;;1.57;1.57;;;;;;;;;;5006196;28;20197;-71
2022/10/23 05:38:15;;;;;;;1.70;1.60;;;;;;;;;;5005676;28;20280;-71
2022/10/23 05:40:42;;;;;;;2.00;1.90;;;;;;;;;;5004214;28;20205;-71
2022/10/23 05:43:09;;;;;;;1.93;1.80;;;;;;;;;;5007156;28;20197;-71
2022/10/23 05:45:36;;;;;;;6.27;1.93;;;;;;;;;;5006502;28;20683;-71
2022/10/23 05:48:03;;;;;;;1.77;1.67;;;;;;;;;;5007613;28;20209;-71
2022/10/23 05:50:30;;;;;;;6.53;1.93;;;;;;;;;;5010457;28;20216;-71
2022/10/23 05:52:57;;;;;;;5.60;2.00;;;;;;;;;;5009962;28;20706;-71
2022/10/23 05:55:26;;;;;;;5.13;2.90;;;;;;;;;;5009931;28;20239;-71
2022/10/23 05:57:53;;;;;;;2.10;2.00;;;;;;;;;;5008679;28;20306;-71
2022/10/23 06:00:20;;;;;;;4.50;2.20;;;;;;;;;;5009529;28;20208;-71
2022/10/23 06:02:47;;;;;;;3.63;2.40;;;;;;;;;;5009777;28;20197;-71
2022/10/23 06:05:14;;;;;;;3.97;2.33;;;;;;;;;;5009644;28;20208;-70
2022/10/23 06:07:42;;;;;;;1.97;1.57;;;;;;;;;;5010184;28;20209;-71
2022/10/23 06:10:09;;;;;;;2.40;2.20;;;;;;;;;;5009902;28;20251;-71
2022/10/23 06:12:37;;;;;;;2.73;2.20;;;;;;;;;;5009624;28;20229;-71
2022/10/23 06:15:05;;;;;;;3.00;2.30;;;;;;;;;;5009927;28;20208;-71
2022/10/23 06:17:32;;;;;;;3.63;2.50;;;;;;;;;;5009747;28;20209;-71
2022/10/23 06:20:01;;;;;;;3.43;2.30;;;;;;;;;;5009757;28;20209;-71
2022/10/23 06:22:28;;;;;;;5.23;2.40;;;;;;;;;;5009057;28;20220;-71
2022/10/23 06:24:55;;;;;;;2.00;1.80;;;;;;;;;;5009621;28;20209;-71
2022/10/23 06:27:23;;;;;;;2.27;2.10;;;;;;;;;;5009278;28;20210;-71
2022/10/23 06:29:51;;;;;;;2.33;1.83;;;;;;;;;;5010048;28;20213;-71
2022/10/23 06:32:18;;;;;;;2.63;2.43;;;;;;;;;;5009464;28;20215;-71
2022/10/23 06:34:45;;;;;;;4.60;2.60;;;;;;;;;;5007961;28;20205;-71
2022/10/23 06:37:12;;;;;;;1.67;1.57;;;;;;;;;;5009781;28;20205;-71
2022/10/23 06:39:40;;;;;;;2.10;1.83;;;;;;;;;;5007773;28;20206;-71
2022/10/23 06:42:07;;;;;;;2.73;1.80;;;;;;;;;;5010500;28;20201;-71
2022/10/23 06:44:34;;;;;;;4.73;1.67;;;;;;;;;;5008137;28;20205;-70
2022/10/23 06:47:02;;;;;;;2.93;1.87;;;;;;;;;;5010620;28;20205;-71
2022/10/23 06:49:30;;;;;;;3.50;1.73;;;;;;;;;;5009990;28;20201;-70
2022/10/23 06:51:57;;;;;;;2.23;1.30;;;;;;;;;;5009360;28;20216;-66
2022/10/23 06:54:24;;;;;;;2.57;1.70;;;;;;;;;;5007682;28;20627;-70
2022/10/23 06:56:51;;;;;;;2.30;1.70;;;;;;;;;;5008509;28;20240;-71
2022/10/23 06:59:18;;;;;;;1.93;1.70;;;;;;;;;;5004557;28;20759;-72
2022/10/23 07:01:45;;;;;;;1.73;1.63;;;;;;;;;;5007367;28;20215;-71
2022/10/23 07:04:14;;;;;;;2.53;1.93;;;;;;;;;;5005376;28;20206;-71
2022/10/23 07:06:41;;;;;;;2.30;2.10;;;;;;;;;;5006878;28;20267;-72
2022/10/23 07:09:08;;;;;;;3.97;2.20;;;;;;;;;;5006693;28;20208;-72
2022/10/23 07:11:35;;;;;;;2.33;2.00;;;;;;;;;;5000582;28;20213;-72
2022/10/23 07:14:03;;;;;;;2.20;2.00;;;;;;;;;;5005517;28;20236;-71
2022/10/23 07:16:30;;;;;;;1.93;1.83;;;;;;;;;;5002559;28;20231;-71
2022/10/23 07:19:00;;;;;;;2.83;2.07;;;;;;;;;;5000984;28;20237;-71
2022/10/23 07:21:28;;;;;;;5.07;2.20;;;;;;;;;;5001018;28;20699;-72
2022/10/23 07:23:56;;;;;;;10.13;2.13;;;;;;;;;;4999831;28;20202;-72
2022/10/23 07:26:23;;;;;;;11.83;2.70;;;;;;;;;;5000691;28;20220;-72
2022/10/23 07:28:53;;;;;;;2.77;2.20;;;;;;;;;;5000113;28;20247;-71
2022/10/23 07:31:21;;;;;;;5.00;2.43;;;;;;;;;;4997413;28;20675;-71
2022/10/23 07:33:48;;;;;;;4.43;3.10;;;;;;;;;;4998606;28;20323;-71
2022/10/23 07:36:15;;;;;;;2.87;2.37;;;;;;;;;;5001055;28;20219;-71
2022/10/23 07:38:43;;;;;;;3.03;2.37;;;;;;;;;;4997782;28;20208;-70
2022/10/23 07:41:11;;;;;;;2.60;2.40;;;;;;;;;;5002290;28;20205;-71
2022/10/23 07:43:39;;;;;;;2.33;2.13;;;;;;;;;;4996604;28;20201;-71
2022/10/23 07:46:07;;;;;;;2.27;2.07;;;;;;;;;;5000958;28;20208;-71
2022/10/23 07:48:34;;;;;;;3.17;2.87;;;;;;;;;;5001016;28;20201;-71
2022/10/23 07:51:02;;;;;;;3.67;2.50;;;;;;;;;;5000230;28;20206;-71
2022/10/23 07:53:29;;;;;;;2.47;2.33;;;;;;;;;;5001252;28;20656;-71
2022/10/23 07:55:59;;;;;;;4.40;2.53;;;;;;;;;;5001057;28;20233;-71
2022/10/23 07:58:27;;;;;;;4.50;1.90;;;;;;;;;;5000048;28;20213;-71
2022/10/23 08:00:57;;;;;;;2.00;1.90;;;;;;;;;;4997895;28;20229;-71
2022/10/23 08:03:24;;;;;;;2.27;2.10;;;;;;;;;;5000513;28;20259;-71
2022/10/23 08:05:52;;;;;;;2.10;2.00;;;;;;;;;;4996668;28;20213;-71
2022/10/23 08:08:19;;;;;;;2.13;2.03;;;;;;;;;;4994787;28;20324;-71
2022/10/23 08:10:46;;;;;;;2.70;2.40;;;;;;;;;;5002793;28;20438;-72
2022/10/23 08:13:15;;;;;;;2.73;2.20;;;;;;;;;;5006707;28;20217;-71
2022/10/23 08:15:42;;;;;;;3.47;2.27;;;;;;;;;;5002955;28;20213;-67
2022/10/23 08:18:10;;;;;;;2.60;1.93;;;;;;;;;;5005108;28;20196;-68
2022/10/23 08:20:40;;;;;;;3.57;2.43;;;;;;;;;;5003730;28;20209;-68
2022/10/23 08:23:07;;;;;;;3.10;2.13;;;;;;;;;;5007426;28;20205;-68
2022/10/23 08:25:34;;;;;;;2.43;2.00;;;;;;;;;;5007299;28;20213;-65
2022/10/23 08:28:01;;;;;;;2.20;2.10;;;;;;;;;;5004502;28;20212;-71
2022/10/23 08:30:30;;;;;;;1.63;1.53;;;;;;;;;;5008379;28;20205;-71
2022/10/23 08:32:57;;;;;;;3.17;1.97;;;;;;;;;;5007740;28;20242;-72
2022/10/23 08:35:24;;;;;;;1.90;1.80;;;;;;;;;;5006349;28;20330;-71
2022/10/23 08:37:51;;;;;;;2.07;1.97;;;;;;;;;;5001822;28;20220;-71
2022/10/23 08:40:20;;;;;;;2.60;1.97;;;;;;;;;;5008342;28;20228;-71
2022/10/23 08:42:50;;;;;;;1.93;1.83;;;;;;;;;;5007817;28;20588;-70
2022/10/23 08:45:25;;;;;;;4.37;1.60;;;;;;;;;;5006949;28;20612;-68
2022/10/23 08:47:54;;;;;;;2.20;2.10;;;;;;;;;;5008549;28;20255;-70
2022/10/23 08:50:25;;;;;;;2.20;2.00;;;;;;;;;;5008094;28;20197;-73
2022/10/23 08:52:54;;;;;;;1.90;1.80;;;;;;;;;;4990657;28;20231;-71
2022/10/23 08:55:24;;;;;;;1.93;1.83;;;;;;;;;;5008041;28;20237;-69
2022/10/23 08:57:55;;;;;;;2.13;2.03;;;;;;;;;;5007006;28;20205;-71
2022/10/23 09:00:22;;;;;;;8.63;1.87;;;;;;;;;;5000700;28;20205;-71
2022/10/23 09:02:50;;;;;;;1.67;1.58;;;;;;;;;;5007672;28;20205;-69
2022/10/23 09:05:20;;;;;;;2.22;2.10;;;;;;;;;;5007746;28;20216;-71
2022/10/23 09:07:53;;;;;;;2.40;2.00;;;;;;;;;;5006001;28;20691;-72
2022/10/23 09:10:30;;;;;;;2.15;2.00;;;;;;;;;;5007776;28;20638;-72
2022/10/23 09:12:58;;;;;;;1.90;1.90;;;;;;;;;;5008595;28;20648;-71
2022/10/23 09:15:27;;;;;;;1.65;1.55;;;;;;;;;;5007628;28;20691;-71
2022/10/23 09:17:55;;;;;;;3.23;1.57;;;;;;;;;;5005505;28;20292;-72
2022/10/23 09:20:25;;;;;;;1.83;1.73;;;;;;;;;;5007971;28;20200;-70
2022/10/23 09:22:55;;;;;;;3.85;1.75;;;;;;;;;;5009078;28;20201;-66
2022/10/23 09:25:24;;;;;;;3.05;1.23;;;;;;;;;;5010330;28;20566;-68
2022/10/23 09:27:52;;;;;;;2.40;2.13;;;;;;;;;;4997319;28;20213;-68
2022/10/23 09:30:26;;;;;;;1.42;1.40;;;;;;;;;;4992431;28;20292;-64
2022/10/23 09:32:53;;;;;;;1.63;1.42;;;;;;;;;;5011334;28;20236;-67
2022/10/23 09:35:22;;;;;;;7.18;3.15;;;;;;;;;;5011260;28;20236;-67
2022/10/23 09:37:52;;;;;;;6.53;2.13;;;;;;;;;;5009878;28;20299;-68
2022/10/23 09:40:22;;;;;;;2.70;1.40;;;;;;;;;;5011532;28;20240;-64
2022/10/23 09:42:54;;;;;;;1.08;1.08;;;;;;;;;;5010497;28;20213;-64
2022/10/23 09:45:22;;;;;;;1.75;1.40;;;;;;;;;;5010433;28;20327;-65
2022/10/23 09:47:49;;;;;;;1.45;1.30;;;;;;;;;;5005430;28;20687;-65
2022/10/23 09:50:20;;;;;;;2.25;1.20;;;;;;;;;;5009202;28;20215;-67
2022/10/23 09:52:50;;;;;;;1.92;1.63;;;;;;;;;;5004024;28;20296;-66
2022/10/23 09:55:22;;;;;;;1.40;1.30;;;;;;;;;;5010721;28;20244;-65
2022/10/23 09:57:50;;;;;;;1.58;1.38;;;;;;;;;;5010782;28;20209;-65
2022/10/23 10:00:18;;;;;;;5.53;1.58;;;;;;;;;;5011131;28;20201;-65
2022/10/23 10:02:55;;;;;;;1.42;1.40;;;;;;;;;;5005581;28;20750;-66
2022/10/23 10:05:23;;;;;;;1.33;1.33;;;;;;;;;;5009930;28;20197;-69
2022/10/23 10:07:56;;;;;;;5.22;2.35;;;;;;;;;;5008172;28;20327;-65
2022/10/23 10:10:25;;;;;;;1.77;1.67;;;;;;;;;;4997337;28;20208;-65
2022/10/23 10:12:55;;;;;;;2.97;1.52;;;;;;;;;;5003972;28;20220;-73
2022/10/23 10:15:27;;;;;;;3.33;1.67;;;;;;;;;;5008298;28;20629;-67
2022/10/23 10:18:02;;;;;;;1.67;1.05;;;;;;;;;;4990555;28;20209;-65
2022/10/23 10:20:35;;;;;;;1.52;1.52;;;;;;;;;;5001018;28;20211;-67
2022/10/23 10:23:05;;;;;;;3.85;1.48;;;;;;;;;;5006040;28;20217;-64
2022/10/23 10:25:35;;;;;;;1.70;1.40;;;;;;;;;;5003867;28;20205;-67
2022/10/23 10:28:10;;;;;;;1.33;1.33;;;;;;;;;;4996578;28;20213;-66
2022/10/23 10:30:46;;;;;;;1.60;1.50;;;;;;;;;;5003204;28;20213;-68
2022/10/23 10:33:16;;;;;;;1.10;1.10;;;;;;;;;;4995948;28;20319;-67
2022/10/23 10:35:48;;;;;;;1.60;1.17;;;;;;;;;;4998356;28;20267;-67
2022/10/23 10:38:21;;;;;;;1.20;1.20;;;;;;;;;;4998154;28;20205;-68
2022/10/23 10:41:01;;;;;;;1.67;1.40;;;;;;;;;;4998652;28;20210;-68
2022/10/23 10:43:32;;;;;;;2.60;2.17;;;;;;;;;;4998720;28;20223;-75
2022/10/23 10:46:01;;;;;;;10.73;3.55;;;;;;;;;;5000809;28;20217;-67
2022/10/23 10:48:55;;;;;;;12.55;4.22;;;;;;;;;;4998791;28;20209;-69
2022/10/23 10:51:24;;;;;;;2.10;1.90;;;;;;;;;;4935963;29;20309;-67
2022/10/23 10:54:00;;;;;;;2.10;1.38;;;;;;;;;;4997551;28;20287;-68
2022/10/23 10:56:30;;;;;;;3.60;1.73;;;;;;;;;;5000036;28;20239;-67
2022/10/23 10:59:00;;;;;;;4.65;1.40;;;;;;;;;;5007984;28;20304;-68
2022/10/23 11:01:29;;;;;;;1.67;1.58;;;;;;;;;;4998535;28;20221;-68
2022/10/23 11:03:58;;;;;;;2.00;1.60;;;;;;;;;;5006018;28;20205;-68
2022/10/23 11:06:26;;;;;;;0.95;0.95;;;;;;;;;;4997795;28;20209;-69
2022/10/23 11:08:53;;;;;;;1.80;1.20;;;;;;;;;;5008454;28;20213;-65
2022/10/23 11:11:24;;;;;;;1.17;1.17;;;;;;;;;;5003146;28;20213;-68
2022/10/23 11:13:53;;;;;;;1.20;1.10;;;;;;;;;;5005650;28;20204;-68
2022/10/23 11:16:22;;;;;;;0.90;0.90;;;;;;;;;;5001512;28;20216;-66
2022/10/23 11:18:55;;;;;;;0.93;0.90;;;;;;;;;;5005244;28;20223;-67
2022/10/23 11:21:27;;;;;;;1.48;1.10;;;;;;;;;;4999691;28;20667;-67
2022/10/23 11:24:17;;;;;;;1.35;1.00;;;;;;;;;;5006546;28;20209;-66
2022/10/23 11:26:51;;;;;;;0.82;0.82;;;;;;;;;;4999861;28;20213;-67
2022/10/23 11:29:33;;;;;;;0.95;0.95;;;;;;;;;;4994216;28;20240;-67
2022/10/23 11:32:08;;;;;;;1.15;1.15;;;;;;;;;;5003311;28;20216;-67
2022/10/23 11:34:44;;;;;;;0.80;0.80;;;;;;;;;;5001066;28;20240;-66
2022/10/23 11:37:16;;;;;;;0.82;0.82;;;;;;;;;;5007283;28;20224;-67
2022/10/23 11:39:54;;;;;;;3.42;0.93;;;;;;;;;;5007858;28;20746;-67
2022/10/23 11:42:30;;;;;;;2.33;1.13;;;;;;;;;;5008371;28;20223;-67
2022/10/23 11:44:58;;;;;;;0.80;0.80;;;;;;;;;;5005134;28;20201;-67
2022/10/23 11:47:31;;;;;;;0.80;0.80;;;;;;;;;;5000984;28;20246;-67
2022/10/23 11:50:19;;;;;;;0.82;0.82;;;;;;;;;;5006336;28;20201;-76
2022/10/23 11:52:56;;;;;;;0.60;0.60;;;;;;;;;;5003158;28;20212;-67
2022/10/23 11:55:24;;;;;;;1.13;1.02;;;;;;;;;;5007507;28;20240;-68
2022/10/23 11:58:10;;;;;;;0.82;0.82;;;;;;;;;;5007798;28;20205;-68
2022/10/23 12:00:41;;;;;;;2.67;1.40;;;;;;;;;;4997805;28;20206;-68
2022/10/23 12:03:16;;;;;;;0.90;0.90;;;;;;;;;;5007682;28;20193;-66
2022/10/23 12:05:44;;;;;;;0.80;0.80;;;;;;;;;;5008485;28;20216;-66
2022/10/23 12:08:22;;;;;;;0.60;0.60;;;;;;;;;;5000548;28;20205;-67
2022/10/23 12:10:51;;;;;;;0.70;0.70;;;;;;;;;;5005257;28;20209;-67
2022/10/23 12:13:29;;;;;;;1.52;0.93;;;;;;;;;;4997993;28;20661;-66
2022/10/23 12:15:57;;;;;;;1.15;1.08;;;;;;;;;;4996839;28;20224;-68
2022/10/23 12:18:24;;;;;;;0.57;0.57;;;;;;;;;;5004325;28;20217;-66
2022/10/23 12:20:53;;;;;;;1.67;0.75;;;;;;;;;;4996984;28;20212;-66
2022/10/23 12:23:38;;;;;;;1.95;0.68;;;;;;;;;;5005619;28;20205;-66
2022/10/23 12:26:17;;;;;;;0.70;0.70;;;;;;;;;;5005249;28;20197;-65
2022/10/23 12:28:49;;;;;;;0.80;0.80;;;;;;;;;;5004868;28;20208;-66
2022/10/23 12:31:27;;;;;;;0.70;0.70;;;;;;;;;;5006886;28;20240;-66
2022/10/23 12:33:59;;;;;;;0.85;0.85;;;;;;;;;;4997520;28;20212;-66
2022/10/23 12:36:38;;;;;;;0.82;0.82;;;;;;;;;;5001999;28;20252;-66
2022/10/23 12:39:20;;;;;;;0.88;0.88;;;;;;;;;;5004256;28;20204;-66
2022/10/23 12:41:47;;;;;;;1.10;1.00;;;;;;;;;;5003749;28;20290;-65
2022/10/23 12:44:14;;;;;;;0.93;0.93;;;;;;;;;;5006805;28;20221;-66
2022/10/23 12:46:43;;;;;;;0.80;0.80;;;;;;;;;;5006031;28;20216;-66
2022/10/23 12:49:14;;;;;;;1.05;0.90;;;;;;;;;;5002911;28;20248;-66
2022/10/23 12:51:42;;;;;;;0.85;0.85;;;;;;;;;;5006716;28;20209;-66
2022/10/23 12:54:15;;;;;;;0.70;0.70;;;;;;;;;;5006754;28;20247;-66
2022/10/23 12:56:43;;;;;;;0.88;0.88;;;;;;;;;;5006405;28;20248;-66
2022/10/23 12:59:15;;;;;;;0.70;0.70;;;;;;;;;;5006614;28;20639;-64
2022/10/23 13:01:43;;;;;;;0.82;0.82;;;;;;;;;;5005921;28;20228;-65
2022/10/23 13:04:14;;;;;;;0.60;0.60;;;;;;;;;;5003457;28;20301;-64
2022/10/23 13:06:41;;;;;;;0.73;0.63;;;;;;;;;;4989125;28;20578;-65
2022/10/23 13:09:13;;;;;;;2.22;1.10;;;;;;;;;;5006259;28;20216;-65
2022/10/23 13:11:41;;;;;;;0.70;0.70;;;;;;;;;;5006563;28;20619;-64
2022/10/23 13:14:12;;;;;;;0.85;0.85;;;;;;;;;;4995416;28;20206;-64
2022/10/23 13:16:39;;;;;;;0.70;0.70;;;;;;;;;;5006351;28;20232;-65
2022/10/23 13:19:07;;;;;;;1.30;0.82;;;;;;;;;;5006299;28;20221;-63
2022/10/23 13:21:34;;;;;;;4.00;0.70;;;;;;;;;;5005547;28;20212;-64
2022/10/23 13:24:01;;;;;;;0.50;0.50;;;;;;;;;;5006211;28;20371;-65
2022/10/23 13:26:31;;;;;;;0.73;0.70;;;;;;;;;;4988566;28;20205;-65
2022/10/23 13:28:58;;;;;;;1.00;0.60;;;;;;;;;;4985656;28;20328;-65
2022/10/23 13:31:27;;;;;;;0.52;0.52;;;;;;;;;;5003934;28;20236;-64
2022/10/23 13:34:05;;;;;;;8.88;0.85;;;;;;;;;;5006152;28;20307;-64
2022/10/23 13:36:35;;;;;;;0.68;0.68;;;;;;;;;;4992266;28;20256;-65
2022/10/23 13:39:04;;;;;;;4.03;0.70;;;;;;;;;;4985988;28;20599;-64
2022/10/23 13:41:36;;;;;;;6.57;0.70;;;;;;;;;;4986247;28;20261;-64
2022/10/23 13:44:03;;;;;;;0.70;0.70;;;;;;;;;;4986231;28;20210;-64
2022/10/23 13:46:30;;;;;;;1.50;0.80;;;;;;;;;;4986086;28;20197;-64
2022/10/23 13:48:57;;;;;;;0.50;0.45;;;;;;;;;;4988666;28;20208;-65
2022/10/23 13:51:26;;;;;;;0.70;0.70;;;;;;;;;;5005938;28;20702;-65
2022/10/23 13:53:55;;;;;;;0.90;0.90;;;;;;;;;;5005168;28;20838;-64
2022/10/23 13:56:22;;;;;;;0.57;0.57;;;;;;;;;;5005509;28;20229;-64
2022/10/23 13:58:50;;;;;;;0.60;0.60;;;;;;;;;;5002417;28;20209;-66
2022/10/23 14:01:21;;;;;;;7.07;0.63;;;;;;;;;;5005803;28;20589;-66
2022/10/23 14:03:48;;;;;;;2.08;0.70;;;;;;;;;;5005240;28;20240;-66
2022/10/23 14:06:15;;;;;;;0.60;0.60;;;;;;;;;;5002472;28;20197;-64
2022/10/23 14:08:42;;;;;;;0.70;0.70;;;;;;;;;;5006602;28;20208;-64
2022/10/23 14:11:11;;;;;;;1.17;0.77;;;;;;;;;;5005730;28;20202;-64
2022/10/23 14:13:38;;;;;;;0.60;0.60;;;;;;;;;;5009670;28;20655;-64
2022/10/23 14:16:05;;;;;;;2.38;1.20;;;;;;;;;;5008970;28;20237;-64
2022/10/23 14:18:32;;;;;;;2.03;0.82;;;;;;;;;;5009638;28;20208;-64
2022/10/23 14:21:01;;;;;;;2.58;0.77;;;;;;;;;;4999983;28;20260;-64
2022/10/23 14:23:28;;;;;;;0.70;0.70;;;;;;;;;;5009826;28;20211;-64
2022/10/23 14:25:55;;;;;;;3.67;0.95;;;;;;;;;;5009983;28;20211;-63
2022/10/23 14:28:23;;;;;;;0.50;0.50;;;;;;;;;;4997973;28;20857;-64
2022/10/23 14:30:50;;;;;;;0.90;0.50;;;;;;;;;;5005861;28;20220;-64
2022/10/23 14:33:17;;;;;;;0.88;0.88;;;;;;;;;;5009040;28;20293;-64
2022/10/23 14:35:44;;;;;;;1.10;0.65;;;;;;;;;;5008627;28;20233;-63
2022/10/23 14:38:12;;;;;;;0.93;0.70;;;;;;;;;;5009456;28;20221;-64
2022/10/23 14:40:39;;;;;;;0.65;0.60;;;;;;;;;;5009272;28;20952;-64
2022/10/23 14:43:06;;;;;;;1.33;0.60;;;;;;;;;;5009107;28;20562;-64
2022/10/23 14:45:34;;;;;;;0.77;0.75;;;;;;;;;;5008928;28;20221;-64
2022/10/23 14:48:01;;;;;;;5.35;0.65;;;;;;;;;;5008537;28;20289;-63
2022/10/23 14:50:32;;;;;;;0.63;0.63;;;;;;;;;;5008187;28;20205;-64
2022/10/23 14:52:59;;;;;;;0.60;0.60;;;;;;;;;;5007966;28;20212;-64
2022/10/23 14:55:26;;;;;;;3.60;0.70;;;;;;;;;;5008019;28;20241;-64
2022/10/23 14:57:55;;;;;;;0.73;0.70;;;;;;;;;;5008082;28;20205;-64